Aérodrome :
LOGIN :

S'inscrire | Disclaimer

   EN    FR    IT 

 










Légende :    VFR   VFR Marginal   IFR   IFR Intensif   IFR Très Intensif
Visi : 
Plafond : 
>= 8 km
>= 3000ft
5 à 8 km
1000 à 3000 ft
1500m à 5 km
500 à 1000 ft
800 à 1500m
200 à 500 ft
< 800m
< 200 ft
Symboles :   Orages  Brouillard  Fortes neiges  Fortes précipitations  Vent > 20 kt
SIGMETs :   Divers  Orages  Givrage  Turbulence  Onde Orograph.  Cendres Volcan.







- Altitude de l'aérodrome : 74 ft
- Code IATA : EIN


EHEH - Eindhoven

DERNIER METAR :
  • 191325Z AUTO 22012KT 200V260 9999 FEW015 SCT031 BKN036 06/02 Q1008 BLU 24012KT 9999 FEW015 SCT020 TEMPO SCT011 SCT015CB BKN020

METARs EXPIRÉS :
  • 191255Z AUTO 23011KT 200V270 9999 NCD 05/02 Q1008 BLU 24012KT 9999 FEW015 SCT020 TEMPO SCT011 SCT015CB BKN020
  • 191234Z AUTO 23012KT 200V260 9999 FEW012 04/02 Q1008 BLU 24012KT 9999 FEW015 SCT020 TEMPO SCT011 SCT015CB BKN020
  • 191225Z AUTO 22012KT 190V260 9999 SCT013 BKN019 BKN026 04/02 Q1008 GRN 24012KT 9999 FEW015 SCT020 TEMPO SCT011 SCT015CB BKN020
  • 191213Z AUTO 23013KT 200V270 9999 FEW013 SCT016 BKN019 05/02 Q1008 WHT 24012KT 9999 FEW015 SCT020 TEMPO SCT011 SCT013
  • 191159Z AUTO 23013KT 9999 FEW016 05/02 Q1008 BLU 24012KT 9999 FEW015 SCT020 TEMPO SCT011 SCT013
  • 191155Z AUTO 23014KT 9999 FEW013 SCT017 05/02 Q1008 WHT 24012KT 9999 FEW015 SCT020 TEMPO SCT011 SCT013
  • 191129Z AUTO 22012KT 9999 SCT011 BKN014 05/03 Q1008 GRN 24012KT 9999 FEW016 SCT020 TEMPO FEW009 SCT013
  • 191125Z AUTO 22011KT 190V250 9999 SCT013 SCT015 05/03 Q1009 GRN 24012KT 9999 FEW016 SCT020 TEMPO FEW009 SCT013
  • 191055Z AUTO 23012KT 190V270 9999 NCD 05/03 Q1009 BLU 24012KT 9999 FEW016 SCT020 TEMPO FEW009 SCT013
  • 191049Z AUTO 23013KT 190V260 9999 FEW010 05/02 Q1009 BLU 24012KT 9999 FEW016 SCT020 TEMPO FEW009 SCT013
  • 191025Z AUTO 22008KT 180V250 9999 FEW009 BKN010 04/02 Q1009 GRN 24010KT 9999 FEW016 SCT020 TEMPO FEW009 SCT013 BKN020

TAF TAF EHEH
Valide du 19 à 12h jusqu'au 20 à 18h UTC


191005Z 1912/2018 23008KT 9999 FEW018 SCT040
PROB40
TEMPO 1912/2001 27015G25KT 4500 SHRAGS FEW010 SCT015CB BKN030
PROB30
TEMPO 1912/2001 3000 TSRAGSSN
BECMG 2011/2013 VRB04KT 4000 RADZ SCT004 BKN008 OVC010
TEMPO 2013/2018 2500 RASN SCT001 BKN003 OVC005
Pas de NOTAMs connus pour ce terrain.



MET'MAP, la Météo Aéronautique d'un coup d'oeil ! - Copyright ORBIFLY Décembre 2007 - Disclaimer

ORBIFLY MET'MAP TEAM :

Programmation & Développement : Alexandra Zaïnal
Conception & Développement : Baudouin d'Aumeries
Co-Programmation & Développement : Marc-Olivier Méhu
Soutien technique & logistique : Manuel Goepfert

Contact : metmap@orbifly.com




SOURCES & CREDITS :

   NOAA